sensor_id;sensor_type;location;lat;lon;timestamp;pressure;altitude;pressure_sealevel;temperature;humidity
70343;BME280;57767;42.068;24.752;2023-06-22T00:00:07;99107.69;;;23.25;54.17
70343;BME280;57767;42.068;24.752;2023-06-22T00:01:13;99103.63;;;23.28;53.92
70343;BME280;57767;42.068;24.752;2023-06-22T00:02:16;99117.31;;;23.31;53.74
70343;BME280;57767;42.068;24.752;2023-06-22T00:03:19;99115.94;;;23.34;53.76
70343;BME280;57767;42.068;24.752;2023-06-22T00:04:21;99108.38;;;23.36;53.38
70343;BME280;57767;42.068;24.752;2023-06-22T00:05:23;99106.50;;;23.36;53.20
70343;BME280;57767;42.068;24.752;2023-06-22T00:06:25;99102.53;;;23.29;53.85
70343;BME280;57767;42.068;24.752;2023-06-22T00:07:27;99106.88;;;23.25;53.87
70343;BME280;57767;42.068;24.752;2023-06-22T00:08:29;99110.94;;;23.22;53.89
70343;BME280;57767;42.068;24.752;2023-06-22T00:09:31;99112.00;;;23.26;53.63
70343;BME280;57767;42.068;24.752;2023-06-22T00:10:34;99110.66;;;23.23;54.05
70343;BME280;57767;42.068;24.752;2023-06-22T00:11:37;99126.03;;;23.23;53.96
70343;BME280;57767;42.068;24.752;2023-06-22T00:12:38;99115.88;;;23.15;53.85
70343;BME280;57767;42.068;24.752;2023-06-22T00:13:40;99111.31;;;23.10;54.38
70343;BME280;57767;42.068;24.752;2023-06-22T00:14:42;99119.16;;;23.07;54.59
70343;BME280;57767;42.068;24.752;2023-06-22T00:15:44;99113.28;;;23.05;54.69
70343;BME280;57767;42.068;24.752;2023-06-22T00:16:46;99127.75;;;23.09;55.01
70343;BME280;57767;42.068;24.752;2023-06-22T00:17:50;99109.25;;;23.02;55.45
70343;BME280;57767;42.068;24.752;2023-06-22T00:18:52;99123.47;;;23.08;55.96
70343;BME280;57767;42.068;24.752;2023-06-22T00:19:54;99131.81;;;23.06;56.11
70343;BME280;57767;42.068;24.752;2023-06-22T00:20:56;99127.25;;;23.07;56.13
70343;BME280;57767;42.068;24.752;2023-06-22T00:21:59;99131.59;;;23.03;55.94
70343;BME280;57767;42.068;24.752;2023-06-22T00:23:02;99128.63;;;23.04;56.12
70343;BME280;57767;42.068;24.752;2023-06-22T00:24:08;99134.03;;;23.04;56.02
70343;BME280;57767;42.068;24.752;2023-06-22T00:25:10;99128.09;;;23.02;56.59
70343;BME280;57767;42.068;24.752;2023-06-22T00:26:12;99126.78;;;23.00;56.72
70343;BME280;57767;42.068;24.752;2023-06-22T00:27:13;99124.34;;;22.98;55.91
70343;BME280;57767;42.068;24.752;2023-06-22T00:28:15;99122.75;;;22.97;55.86
70343;BME280;57767;42.068;24.752;2023-06-22T00:29:17;99130.31;;;22.95;56.70
70343;BME280;57767;42.068;24.752;2023-06-22T00:30:20;99129.28;;;22.91;57.07
70343;BME280;57767;42.068;24.752;2023-06-22T00:31:21;99127.13;;;22.88;57.49
70343;BME280;57767;42.068;24.752;2023-06-22T00:32:23;99123.72;;;22.77;57.11
70343;BME280;57767;42.068;24.752;2023-06-22T00:33:25;99135.81;;;22.80;56.86
70343;BME280;57767;42.068;24.752;2023-06-22T00:34:27;99136.09;;;22.78;56.48
70343;BME280;57767;42.068;24.752;2023-06-22T00:35:29;99140.91;;;22.81;57.06
70343;BME280;57767;42.068;24.752;2023-06-22T00:36:31;99140.41;;;22.79;57.19
70343;BME280;57767;42.068;24.752;2023-06-22T00:37:32;99133.91;;;22.80;56.77
70343;BME280;57767;42.068;24.752;2023-06-22T00:38:34;99138.22;;;22.81;56.91
70343;BME280;57767;42.068;24.752;2023-06-22T00:39:36;99141.72;;;22.82;57.85
70343;BME280;57767;42.068;24.752;2023-06-22T00:40:38;99146.81;;;22.83;57.45
70343;BME280;57767;42.068;24.752;2023-06-22T00:41:40;99137.94;;;22.83;57.41
70343;BME280;57767;42.068;24.752;2023-06-22T00:42:42;99143.88;;;22.80;56.92
70343;BME280;57767;42.068;24.752;2023-06-22T00:43:45;99130.13;;;22.81;56.81
70343;BME280;57767;42.068;24.752;2023-06-22T00:44:47;99141.72;;;22.82;56.91
70343;BME280;57767;42.068;24.752;2023-06-22T00:45:49;99132.59;;;22.73;57.86
70343;BME280;57767;42.068;24.752;2023-06-22T00:46:51;99139.91;;;22.67;58.04
70343;BME280;57767;42.068;24.752;2023-06-22T00:47:58;99142.91;;;22.61;58.60
70343;BME280;57767;42.068;24.752;2023-06-22T00:49:00;99140.22;;;22.61;57.91
70343;BME280;57767;42.068;24.752;2023-06-22T00:50:03;99141.56;;;22.63;58.17
70343;BME280;57767;42.068;24.752;2023-06-22T00:51:08;99135.94;;;22.55;58.58
70343;BME280;57767;42.068;24.752;2023-06-22T00:52:10;99142.53;;;22.38;58.46
70343;BME280;57767;42.068;24.752;2023-06-22T00:53:15;99133.94;;;22.31;58.50
70343;BME280;57767;42.068;24.752;2023-06-22T00:54:19;99132.38;;;22.25;58.47
70343;BME280;57767;42.068;24.752;2023-06-22T00:55:26;99137.69;;;22.35;58.64
70343;BME280;57767;42.068;24.752;2023-06-22T00:56:28;99132.84;;;22.37;57.85
70343;BME280;57767;42.068;24.752;2023-06-22T00:57:31;99137.94;;;22.39;57.84
70343;BME280;57767;42.068;24.752;2023-06-22T00:58:33;99141.44;;;22.39;58.29
70343;BME280;57767;42.068;24.752;2023-06-22T00:59:36;99140.97;;;22.27;57.70
70343;BME280;57767;42.068;24.752;2023-06-22T01:00:39;99134.78;;;22.27;57.71
70343;BME280;57767;42.068;24.752;2023-06-22T01:01:42;99128.03;;;22.29;57.72
70343;BME280;57767;42.068;24.752;2023-06-22T01:02:44;99130.41;;;22.36;57.70
70343;BME280;57767;42.068;24.752;2023-06-22T01:03:53;99130.94;;;22.38;57.33
70343;BME280;57767;42.068;24.752;2023-06-22T01:04:59;99117.25;;;22.29;57.68
70343;BME280;57767;42.068;24.752;2023-06-22T01:06:10;99139.31;;;22.36;57.14
70343;BME280;57767;42.068;24.752;2023-06-22T01:08:53;99137.66;;;22.40;58.72
70343;BME280;57767;42.068;24.752;2023-06-22T01:10:16;99135.53;;;22.32;58.51
70343;BME280;57767;42.068;24.752;2023-06-22T01:11:26;99133.94;;;22.31;57.81
70343;BME280;57767;42.068;24.752;2023-06-22T01:12:31;99128.56;;;22.31;58.46
70343;BME280;57767;42.068;24.752;2023-06-22T01:14:50;99122.13;;;22.27;59.05
70343;BME280;57767;42.068;24.752;2023-06-22T01:16:05;99124.84;;;22.27;58.79
70343;BME280;57767;42.068;24.752;2023-06-22T01:17:11;99120.53;;;22.21;58.91
70343;BME280;57767;42.068;24.752;2023-06-22T01:18:16;99127.00;;;22.25;59.23
70343;BME280;57767;42.068;24.752;2023-06-22T01:20:39;99121.09;;;22.23;58.90
70343;BME280;57767;42.068;24.752;2023-06-22T01:21:42;99116.78;;;22.22;58.80
70343;BME280;57767;42.068;24.752;2023-06-22T01:24:15;99132.84;;;22.32;58.42
70343;BME280;57767;42.068;24.752;2023-06-22T01:25:28;99121.34;;;22.27;58.78
70343;BME280;57767;42.068;24.752;2023-06-22T01:27:09;99131.25;;;22.31;58.64
70343;BME280;57767;42.068;24.752;2023-06-22T01:29:26;99135.00;;;22.35;58.41
70343;BME280;57767;42.068;24.752;2023-06-22T01:30:29;99134.72;;;22.37;58.72
70343;BME280;57767;42.068;24.752;2023-06-22T01:31:32;99133.13;;;22.36;57.88
70343;BME280;57767;42.068;24.752;2023-06-22T01:32:38;99135.81;;;22.36;58.31
70343;BME280;57767;42.068;24.752;2023-06-22T01:33:43;99137.69;;;22.35;58.81
70343;BME280;57767;42.068;24.752;2023-06-22T01:34:46;99130.69;;;22.34;59.02
70343;BME280;57767;42.068;24.752;2023-06-22T01:35:48;99128.84;;;22.30;58.54
70343;BME280;57767;42.068;24.752;2023-06-22T01:36:51;99134.47;;;22.33;58.77
70343;BME280;57767;42.068;24.752;2023-06-22T01:37:54;99130.72;;;22.29;58.99
70343;BME280;57767;42.068;24.752;2023-06-22T01:38:57;99136.88;;;22.35;59.16
70343;BME280;57767;42.068;24.752;2023-06-22T01:39:59;99139.31;;;22.36;59.08
70343;BME280;57767;42.068;24.752;2023-06-22T01:41:02;99127.75;;;22.31;58.82
70343;BME280;57767;42.068;24.752;2023-06-22T01:42:06;99134.44;;;22.38;59.42
70343;BME280;57767;42.068;24.752;2023-06-22T01:43:08;99127.47;;;22.32;59.57
70343;BME280;57767;42.068;24.752;2023-06-22T01:44:10;99117.78;;;22.31;59.07
70343;BME280;57767;42.068;24.752;2023-06-22T01:45:13;99118.31;;;22.38;58.52
70343;BME280;57767;42.068;24.752;2023-06-22T01:46:16;99122.88;;;22.38;59.02
70343;BME280;57767;42.068;24.752;2023-06-22T01:47:22;99116.72;;;22.32;58.80
70343;BME280;57767;42.068;24.752;2023-06-22T01:48:25;99125.84;;;22.36;59.25
70343;BME280;57767;42.068;24.752;2023-06-22T01:49:27;99127.19;;;22.39;58.79
70343;BME280;57767;42.068;24.752;2023-06-22T01:50:29;99122.59;;;22.39;58.72
70343;BME280;57767;42.068;24.752;2023-06-22T01:51:32;99124.78;;;22.37;59.11
70343;BME280;57767;42.068;24.752;2023-06-22T01:52:34;99115.34;;;22.35;59.98
70343;BME280;57767;42.068;24.752;2023-06-22T01:53:36;99121.06;;;22.28;59.06
70343;BME280;57767;42.068;24.752;2023-06-22T01:54:39;99113.53;;;22.25;58.64
70343;BME280;57767;42.068;24.752;2023-06-22T01:55:41;99100.63;;;22.22;58.74
70343;BME280;57767;42.068;24.752;2023-06-22T01:56:43;99122.38;;;22.31;58.90
70343;BME280;57767;42.068;24.752;2023-06-22T01:57:45;99121.06;;;22.28;59.04
70343;BME280;57767;42.068;24.752;2023-06-22T02:00:03;99134.22;;;22.30;59.21
70343;BME280;57767;42.068;24.752;2023-06-22T02:01:10;99131.81;;;22.28;59.43
70343;BME280;57767;42.068;24.752;2023-06-22T02:02:15;99125.09;;;22.26;59.82
70343;BME280;57767;42.068;24.752;2023-06-22T02:03:21;99130.22;;;22.27;59.58
70343;BME280;57767;42.068;24.752;2023-06-22T02:04:29;99131.84;;;22.23;59.64
70343;BME280;57767;42.068;24.752;2023-06-22T02:05:37;99127.06;;;22.10;59.58
70343;BME280;57767;42.068;24.752;2023-06-22T02:06:42;99130.03;;;22.08;59.67
70343;BME280;57767;42.068;24.752;2023-06-22T02:07:47;99131.91;;;22.08;60.13
70343;BME280;57767;42.068;24.752;2023-06-22T02:08:56;99134.59;;;22.08;59.97
70343;BME280;57767;42.068;24.752;2023-06-22T02:09:59;99137.81;;;22.10;60.04
70343;BME280;57767;42.068;24.752;2023-06-22T02:11:03;99131.94;;;22.03;59.50
70343;BME280;57767;42.068;24.752;2023-06-22T02:12:08;99131.09;;;22.07;59.51
70343;BME280;57767;42.068;24.752;2023-06-22T02:13:13;99133.53;;;22.09;59.52
70343;BME280;57767;42.068;24.752;2023-06-22T02:14:15;99132.72;;;22.08;59.81
70343;BME280;57767;42.068;24.752;2023-06-22T02:15:20;99127.06;;;22.05;59.69
70343;BME280;57767;42.068;24.752;2023-06-22T02:16:22;99117.97;;;22.01;59.44
70343;BME280;57767;42.068;24.752;2023-06-22T02:17:25;99137.53;;;22.11;58.92
70343;BME280;57767;42.068;24.752;2023-06-22T02:18:28;99131.09;;;22.12;58.73
70343;BME280;57767;42.068;24.752;2023-06-22T02:19:30;99124.91;;;22.07;58.85
70343;BME280;57767;42.068;24.752;2023-06-22T02:20:38;99128.94;;;22.09;58.84
70343;BME280;57767;42.068;24.752;2023-06-22T02:21:40;99135.94;;;22.10;58.83
70343;BME280;57767;42.068;24.752;2023-06-22T02:22:42;99134.06;;;22.11;58.68
70343;BME280;57767;42.068;24.752;2023-06-22T02:23:44;99130.56;;;22.10;59.17
70343;BME280;57767;42.068;24.752;2023-06-22T02:24:46;99130.28;;;22.07;59.20
70343;BME280;57767;42.068;24.752;2023-06-22T02:25:48;99131.91;;;22.08;59.07
70343;BME280;57767;42.068;24.752;2023-06-22T02:26:49;99131.91;;;22.08;59.50
70343;BME280;57767;42.068;24.752;2023-06-22T02:27:51;99137.56;;;22.06;60.26
70343;BME280;57767;42.068;24.752;2023-06-22T02:28:53;99119.59;;;21.87;60.20
70343;BME280;57767;42.068;24.752;2023-06-22T02:29:55;99120.91;;;21.94;60.33
70343;BME280;57767;42.068;24.752;2023-06-22T02:30:57;99132.19;;;21.96;60.46
70343;BME280;57767;42.068;24.752;2023-06-22T02:31:59;99126.06;;;21.91;60.03
70343;BME280;57767;42.068;24.752;2023-06-22T02:33:00;99143.50;;;21.98;60.50
70343;BME280;57767;42.068;24.752;2023-06-22T02:34:02;99140.53;;;21.95;60.77
70343;BME280;57767;42.068;24.752;2023-06-22T02:35:04;99146.72;;;21.95;60.95
70343;BME280;57767;42.068;24.752;2023-06-22T02:36:06;99145.09;;;21.94;60.91
70343;BME280;57767;42.068;24.752;2023-06-22T02:37:10;99136.00;;;21.90;60.94
70343;BME280;57767;42.068;24.752;2023-06-22T02:38:14;99143.25;;;21.90;60.92
70343;BME280;57767;42.068;24.752;2023-06-22T02:39:24;99139.78;;;21.89;60.69
70343;BME280;57767;42.068;24.752;2023-06-22T02:40:27;99134.13;;;21.86;61.00
70343;BME280;57767;42.068;24.752;2023-06-22T02:41:29;99134.66;;;21.83;61.14
70343;BME280;57767;42.068;24.752;2023-06-22T02:42:31;99141.38;;;21.85;61.29
70343;BME280;57767;42.068;24.752;2023-06-22T02:43:33;99144.06;;;21.80;61.34
70343;BME280;57767;42.068;24.752;2023-06-22T02:44:34;99152.94;;;21.86;61.46
70343;BME280;57767;42.068;24.752;2023-06-22T02:45:36;99149.78;;;21.63;61.99
70343;BME280;57767;42.068;24.752;2023-06-22T02:46:38;99141.50;;;21.50;61.88
70343;BME280;57767;42.068;24.752;2023-06-22T02:47:40;99147.91;;;21.54;61.94
70343;BME280;57767;42.068;24.752;2023-06-22T02:48:42;99148.44;;;21.56;62.28
70343;BME280;57767;42.068;24.752;2023-06-22T02:49:47;99156.78;;;21.59;62.58
70343;BME280;57767;42.068;24.752;2023-06-22T02:50:49;99143.34;;;21.54;62.60
70343;BME280;57767;42.068;24.752;2023-06-22T02:51:51;99151.41;;;21.59;62.97
70343;BME280;57767;42.068;24.752;2023-06-22T02:52:52;99144.72;;;21.52;62.99
70343;BME280;57767;42.068;24.752;2023-06-22T02:53:54;99141.22;;;21.41;63.34
70343;BME280;57767;42.068;24.752;2023-06-22T02:54:59;99151.44;;;21.44;63.00
70343;BME280;57767;42.068;24.752;2023-06-22T02:56:02;99143.09;;;21.40;62.23
70343;BME280;57767;42.068;24.752;2023-06-22T02:57:06;99154.13;;;21.44;63.17
70343;BME280;57767;42.068;24.752;2023-06-22T02:58:08;99155.72;;;21.45;63.33
70343;BME280;57767;42.068;24.752;2023-06-22T02:59:11;99148.47;;;21.45;63.69
70343;BME280;57767;42.068;24.752;2023-06-22T03:00:13;99155.19;;;21.43;63.50
70343;BME280;57767;42.068;24.752;2023-06-22T03:01:21;99146.88;;;21.39;63.46
70343;BME280;57767;42.068;24.752;2023-06-22T03:02:25;99155.44;;;21.41;63.78
70343;BME280;57767;42.068;24.752;2023-06-22T03:03:28;99154.13;;;21.44;63.61
70343;BME280;57767;42.068;24.752;2023-06-22T03:04:30;99149.56;;;21.39;63.54
70343;BME280;57767;42.068;24.752;2023-06-22T03:05:32;99154.66;;;21.41;63.51
70343;BME280;57767;42.068;24.752;2023-06-22T03:06:36;99156.25;;;21.42;63.40
70343;BME280;57767;42.068;24.752;2023-06-22T03:07:42;99148.22;;;21.37;63.73
70343;BME280;57767;42.068;24.752;2023-06-22T03:08:44;99152.75;;;21.41;63.50
70343;BME280;57767;42.068;24.752;2023-06-22T03:09:45;99154.66;;;21.46;63.50
70343;BME280;57767;42.068;24.752;2023-06-22T03:10:47;99151.97;;;21.46;63.54
70343;BME280;57767;42.068;24.752;2023-06-22T03:11:49;99156.81;;;21.49;63.59
70343;BME280;57767;42.068;24.752;2023-06-22T03:12:51;99157.59;;;21.50;63.78
70343;BME280;57767;42.068;24.752;2023-06-22T03:13:53;99154.66;;;21.51;63.70
70343;BME280;57767;42.068;24.752;2023-06-22T03:14:54;99165.66;;;21.55;63.91
70343;BME280;57767;42.068;24.752;2023-06-22T03:15:56;99165.66;;;21.55;63.74
70343;BME280;57767;42.068;24.752;2023-06-22T03:16:58;99166.44;;;21.55;63.46
70343;BME280;57767;42.068;24.752;2023-06-22T03:18:04;99165.09;;;21.58;62.78
70343;BME280;57767;42.068;24.752;2023-06-22T03:19:06;99169.66;;;21.67;62.51
70343;BME280;57767;42.068;24.752;2023-06-22T03:20:09;99175.03;;;21.72;62.50
70343;BME280;57767;42.068;24.752;2023-06-22T03:21:12;99174.47;;;21.70;62.56
70343;BME280;57767;42.068;24.752;2023-06-22T03:22:14;99177.16;;;21.75;62.92
70343;BME280;57767;42.068;24.752;2023-06-22T03:23:16;99162.38;;;21.73;62.80
70343;BME280;57767;42.068;24.752;2023-06-22T03:24:18;99167.47;;;21.79;62.48
70343;BME280;57767;42.068;24.752;2023-06-22T03:25:20;99175.25;;;21.81;62.72
70343;BME280;57767;42.068;24.752;2023-06-22T03:26:22;99173.38;;;21.87;62.68
70343;BME280;57767;42.068;24.752;2023-06-22T03:27:25;99162.63;;;21.81;63.47
70343;BME280;57767;42.068;24.752;2023-06-22T03:28:26;99169.06;;;21.86;63.25
70343;BME280;57767;42.068;24.752;2023-06-22T03:29:28;99173.88;;;21.94;62.81
70343;BME280;57767;42.068;24.752;2023-06-22T03:30:32;99179.50;;;21.97;62.82
70343;BME280;57767;42.068;24.752;2023-06-22T03:31:34;99172.25;;;21.98;63.05
70343;BME280;57767;42.068;24.752;2023-06-22T03:32:36;99177.09;;;22.06;63.18
70343;BME280;57767;42.068;24.752;2023-06-22T03:33:37;99171.44;;;22.07;62.76
70343;BME280;57767;42.068;24.752;2023-06-22T03:34:39;99170.09;;;22.15;62.66
70343;BME280;57767;42.068;24.752;2023-06-22T03:35:42;99173.25;;;22.22;62.50
70343;BME280;57767;42.068;24.752;2023-06-22T03:36:44;99177.56;;;22.23;63.19
70343;BME280;57767;42.068;24.752;2023-06-22T03:37:46;99171.63;;;22.26;63.03
70343;BME280;57767;42.068;24.752;2023-06-22T03:38:50;99183.16;;;22.37;62.92
70343;BME280;57767;42.068;24.752;2023-06-22T03:39:52;99183.91;;;22.42;62.85
70343;BME280;57767;42.068;24.752;2023-06-22T03:40:54;99183.63;;;22.49;62.39
70343;BME280;57767;42.068;24.752;2023-06-22T03:41:56;99173.91;;;22.53;62.44
70343;BME280;57767;42.068;24.752;2023-06-22T03:42:57;99181.69;;;22.60;62.36
70343;BME280;57767;42.068;24.752;2023-06-22T03:43:59;99184.34;;;22.65;62.13
70343;BME280;57767;42.068;24.752;2023-06-22T03:45:01;99177.03;;;22.70;62.02
70343;BME280;57767;42.068;24.752;2023-06-22T03:46:03;99184.56;;;22.78;61.68
70343;BME280;57767;42.068;24.752;2023-06-22T03:47:05;99189.06;;;22.88;61.57
70343;BME280;57767;42.068;24.752;2023-06-22T03:48:08;99182.81;;;22.98;60.81
70343;BME280;57767;42.068;24.752;2023-06-22T03:49:10;99176.59;;;23.02;60.96
70343;BME280;57767;42.068;24.752;2023-06-22T03:50:12;99172.19;;;23.11;60.82
70343;BME280;57767;42.068;24.752;2023-06-22T03:51:15;99184.47;;;23.22;61.19
70343;BME280;57767;42.068;24.752;2023-06-22T03:52:17;99187.38;;;23.31;60.51
70343;BME280;57767;42.068;24.752;2023-06-22T03:53:18;99187.31;;;23.41;60.38
70343;BME280;57767;42.068;24.752;2023-06-22T03:54:20;99181.84;;;23.51;60.78
70343;BME280;57767;42.068;24.752;2023-06-22T03:55:22;99188.50;;;23.59;60.73
70343;BME280;57767;42.068;24.752;2023-06-22T03:56:24;99176.59;;;23.65;60.34
70343;BME280;57767;42.068;24.752;2023-06-22T03:57:26;99187.25;;;23.75;60.42
70343;BME280;57767;42.068;24.752;2023-06-22T03:58:27;99184.50;;;23.80;59.94
70343;BME280;57767;42.068;24.752;2023-06-22T03:59:34;99187.09;;;23.90;60.21
70343;BME280;57767;42.068;24.752;2023-06-22T04:00:36;99184.31;;;23.96;59.40
70343;BME280;57767;42.068;24.752;2023-06-22T04:01:38;99183.09;;;24.07;59.39
70343;BME280;57767;42.068;24.752;2023-06-22T04:02:40;99178.19;;;24.14;58.89
70343;BME280;57767;42.068;24.752;2023-06-22T04:03:42;99178.88;;;24.24;58.69
70343;BME280;57767;42.068;24.752;2023-06-22T04:04:44;99180.34;;;24.36;58.85
70343;BME280;57767;42.068;24.752;2023-06-22T04:05:47;99178.59;;;24.45;58.29
70343;BME280;57767;42.068;24.752;2023-06-22T04:06:49;99179.63;;;24.49;58.06
70343;BME280;57767;42.068;24.752;2023-06-22T04:07:51;99166.44;;;24.47;56.26
70343;BME280;57767;42.068;24.752;2023-06-22T04:08:53;99168.56;;;24.50;55.36
70343;BME280;57767;42.068;24.752;2023-06-22T04:09:54;99168.22;;;24.57;57.17
70343;BME280;57767;42.068;24.752;2023-06-22T04:10:56;99173.75;;;24.66;54.51
70343;BME280;57767;42.068;24.752;2023-06-22T04:11:58;99173.38;;;24.72;55.38
70343;BME280;57767;42.068;24.752;2023-06-22T04:13:00;99173.94;;;24.88;55.16
70343;BME280;57767;42.068;24.752;2023-06-22T04:14:02;99173.81;;;24.98;55.08
70343;BME280;57767;42.068;24.752;2023-06-22T04:15:04;99173.34;;;25.10;55.71
70343;BME280;57767;42.068;24.752;2023-06-22T04:16:06;99175.59;;;25.21;54.86
70343;BME280;57767;42.068;24.752;2023-06-22T04:17:07;99173.22;;;25.33;54.79
70343;BME280;57767;42.068;24.752;2023-06-22T04:18:09;99159.22;;;25.31;52.54
70343;BME280;57767;42.068;24.752;2023-06-22T04:19:11;99178.38;;;25.49;52.77
70343;BME280;57767;42.068;24.752;2023-06-22T04:20:17;99180.88;;;25.59;52.03
70343;BME280;57767;42.068;24.752;2023-06-22T04:21:19;99185.84;;;25.71;52.60
70343;BME280;57767;42.068;24.752;2023-06-22T04:22:21;99171.53;;;25.70;52.04
70343;BME280;57767;42.068;24.752;2023-06-22T04:23:23;99188.06;;;25.82;53.48
70343;BME280;57767;42.068;24.752;2023-06-22T04:24:25;99197.16;;;25.86;52.55
70343;BME280;57767;42.068;24.752;2023-06-22T04:25:26;99189.84;;;25.87;53.36
70343;BME280;57767;42.068;24.752;2023-06-22T04:26:28;99189.25;;;25.90;54.54
70343;BME280;57767;42.068;24.752;2023-06-22T04:27:30;99188.75;;;26.01;54.34
70343;BME280;57767;42.068;24.752;2023-06-22T04:28:32;99195.19;;;26.05;53.31
70343;BME280;57767;42.068;24.752;2023-06-22T04:29:37;99193.56;;;26.18;53.39
70343;BME280;57767;42.068;24.752;2023-06-22T04:30:39;99195.81;;;26.30;52.55
70343;BME280;57767;42.068;24.752;2023-06-22T04:31:48;99197.69;;;26.43;53.88
70343;BME280;57767;42.068;24.752;2023-06-22T04:32:52;99185.03;;;26.52;53.23
70343;BME280;57767;42.068;24.752;2023-06-22T04:34:00;99178.88;;;26.60;52.53
70343;BME280;57767;42.068;24.752;2023-06-22T04:35:07;99186.06;;;26.79;51.13
70343;BME280;57767;42.068;24.752;2023-06-22T04:36:09;99188.53;;;26.89;52.46
70343;BME280;57767;42.068;24.752;2023-06-22T04:37:14;99184.63;;;26.95;51.32
70343;BME280;57767;42.068;24.752;2023-06-22T04:38:17;99193.38;;;27.14;50.78
70343;BME280;57767;42.068;24.752;2023-06-22T04:39:19;99192.19;;;27.29;49.42
70343;BME280;57767;42.068;24.752;2023-06-22T04:40:22;99195.63;;;27.43;47.63
70343;BME280;57767;42.068;24.752;2023-06-22T04:41:24;99189.03;;;27.58;47.32
70343;BME280;57767;42.068;24.752;2023-06-22T04:42:26;99190.38;;;27.69;47.87
70343;BME280;57767;42.068;24.752;2023-06-22T04:43:28;99183.69;;;27.75;47.36
70343;BME280;57767;42.068;24.752;2023-06-22T04:44:32;99191.41;;;27.90;47.50
70343;BME280;57767;42.068;24.752;2023-06-22T04:45:33;99185.69;;;28.00;46.01
70343;BME280;57767;42.068;24.752;2023-06-22T04:46:39;99186.88;;;28.16;45.39
70343;BME280;57767;42.068;24.752;2023-06-22T04:47:41;99179.91;;;28.24;44.77
70343;BME280;57767;42.068;24.752;2023-06-22T04:48:43;99184.84;;;28.31;45.08
70343;BME280;57767;42.068;24.752;2023-06-22T04:49:45;99177.69;;;28.35;45.73
70343;BME280;57767;42.068;24.752;2023-06-22T04:50:47;99179.78;;;28.46;45.59
70343;BME280;57767;42.068;24.752;2023-06-22T04:51:49;99195.59;;;28.53;45.95
70343;BME280;57767;42.068;24.752;2023-06-22T04:52:53;99197.38;;;28.58;44.61
70343;BME280;57767;42.068;24.752;2023-06-22T04:53:55;99189.22;;;28.66;44.96
70343;BME280;57767;42.068;24.752;2023-06-22T04:55:02;99185.88;;;28.69;44.21
70343;BME280;57767;42.068;24.752;2023-06-22T04:56:05;99178.69;;;28.73;44.37
70343;BME280;57767;42.068;24.752;2023-06-22T04:57:07;99187.16;;;28.72;45.05
70343;BME280;57767;42.068;24.752;2023-06-22T04:58:12;99182.34;;;28.77;44.87
70343;BME280;57767;42.068;24.752;2023-06-22T04:59:14;99183.47;;;28.76;45.82
70343;BME280;57767;42.068;24.752;2023-06-22T05:00:19;99189.56;;;28.91;44.65
70343;BME280;57767;42.068;24.752;2023-06-22T05:01:24;99190.84;;;29.02;44.04
70343;BME280;57767;42.068;24.752;2023-06-22T05:02:28;99177.72;;;29.04;45.08
70343;BME280;57767;42.068;24.752;2023-06-22T05:03:33;99187.81;;;29.12;44.17
70343;BME280;57767;42.068;24.752;2023-06-22T05:04:35;99175.16;;;29.16;42.84
70343;BME280;57767;42.068;24.752;2023-06-22T05:05:42;99177.22;;;29.28;44.07
70343;BME280;57767;42.068;24.752;2023-06-22T05:06:44;99172.28;;;29.38;42.78
70343;BME280;57767;42.068;24.752;2023-06-22T05:07:47;99171.59;;;29.41;44.04
70343;BME280;57767;42.068;24.752;2023-06-22T05:08:55;99174.31;;;29.50;42.32
70343;BME280;57767;42.068;24.752;2023-06-22T05:10:01;99171.16;;;29.22;41.67
70343;BME280;57767;42.068;24.752;2023-06-22T05:11:03;99173.72;;;28.58;42.95
70343;BME280;57767;42.068;24.752;2023-06-22T05:12:07;99169.84;;;28.33;43.07
70343;BME280;57767;42.068;24.752;2023-06-22T05:13:11;99159.22;;;28.06;44.19
70343;BME280;57767;42.068;24.752;2023-06-22T05:14:13;99170.47;;;27.82;44.59
70343;BME280;57767;42.068;24.752;2023-06-22T05:15:15;99175.91;;;27.82;44.01
70343;BME280;57767;42.068;24.752;2023-06-22T05:16:17;99173.41;;;28.03;44.38
70343;BME280;57767;42.068;24.752;2023-06-22T05:17:19;99174.09;;;28.08;42.60
70343;BME280;57767;42.068;24.752;2023-06-22T05:18:21;99174.63;;;28.19;42.91
70343;BME280;57767;42.068;24.752;2023-06-22T05:19:25;99169.50;;;28.26;42.83
70343;BME280;57767;42.068;24.752;2023-06-22T05:20:36;99177.25;;;28.59;42.41
70343;BME280;57767;42.068;24.752;2023-06-22T05:21:38;99180.78;;;28.85;42.42
70343;BME280;57767;42.068;24.752;2023-06-22T05:22:40;99174.84;;;29.09;41.39
70343;BME280;57767;42.068;24.752;2023-06-22T05:23:42;99188.25;;;29.31;42.19
70343;BME280;57767;42.068;24.752;2023-06-22T05:24:45;99172.09;;;29.43;42.69
70343;BME280;57767;42.068;24.752;2023-06-22T05:25:47;99172.03;;;29.61;43.11
70343;BME280;57767;42.068;24.752;2023-06-22T05:26:48;99178.34;;;29.82;43.15
70343;BME280;57767;42.068;24.752;2023-06-22T05:27:50;99179.13;;;30.00;42.12
70343;BME280;57767;42.068;24.752;2023-06-22T05:28:53;99169.28;;;30.07;41.51
70343;BME280;57767;42.068;24.752;2023-06-22T05:29:55;99167.13;;;30.21;40.80
70343;BME280;57767;42.068;24.752;2023-06-22T05:30:57;99175.53;;;30.37;40.52
70343;BME280;57767;42.068;24.752;2023-06-22T05:31:58;99169.16;;;30.54;40.44
70343;BME280;57767;42.068;24.752;2023-06-22T05:33:02;99172.91;;;30.70;40.19
70343;BME280;57767;42.068;24.752;2023-06-22T05:34:03;99174.84;;;30.90;39.78
70343;BME280;57767;42.068;24.752;2023-06-22T05:35:05;99179.53;;;31.02;39.94
70343;BME280;57767;42.068;24.752;2023-06-22T05:36:08;99179.50;;;31.23;40.36
70343;BME280;57767;42.068;24.752;2023-06-22T05:37:10;99177.75;;;31.39;39.65
70343;BME280;57767;42.068;24.752;2023-06-22T05:38:14;99181.31;;;31.52;38.89